sensor_id;sensor_type;location;lat;lon;timestamp;pressure;altitude;pressure_sealevel;temperature;humidity
5814;BME280;2933;52.302;8.134;2023-02-21T00:05:09;100697.34;;;7.63;100.00
5814;BME280;2933;52.302;8.134;2023-02-21T00:10:28;100698.78;;;7.70;100.00
5814;BME280;2933;52.302;8.134;2023-02-21T00:15:47;100685.81;;;7.68;100.00
5814;BME280;2933;52.302;8.134;2023-02-21T00:21:07;100678.16;;;7.65;100.00
5814;BME280;2933;52.302;8.134;2023-02-21T00:26:26;100687.50;;;7.69;100.00
5814;BME280;2933;52.302;8.134;2023-02-21T00:31:45;100668.75;;;7.63;100.00
5814;BME280;2933;52.302;8.134;2023-02-21T00:37:05;100694.28;;;7.73;100.00
5814;BME280;2933;52.302;8.134;2023-02-21T00:42:24;100687.22;;;7.75;100.00
5814;BME280;2933;52.302;8.134;2023-02-21T00:47:43;100692.66;;;7.71;100.00
5814;BME280;2933;52.302;8.134;2023-02-21T00:53:03;100683.00;;;7.73;100.00
5814;BME280;2933;52.302;8.134;2023-02-21T00:58:22;100686.41;;;7.75;100.00
5814;BME280;2933;52.302;8.134;2023-02-21T01:03:41;100678.50;;;7.76;100.00
5814;BME280;2933;52.302;8.134;2023-02-21T01:09:02;100682.88;;;7.76;100.00
5814;BME280;2933;52.302;8.134;2023-02-21T01:14:20;100676.00;;;7.75;100.00
5814;BME280;2933;52.302;8.134;2023-02-21T01:19:40;100667.19;;;7.78;100.00
5814;BME280;2933;52.302;8.134;2023-02-21T01:25:00;100675.72;;;7.81;100.00
5814;BME280;2933;52.302;8.134;2023-02-21T01:30:19;100675.00;;;7.78;100.00
5814;BME280;2933;52.302;8.134;2023-02-21T01:35:38;100674.84;;;7.81;100.00
5814;BME280;2933;52.302;8.134;2023-02-21T01:40:58;100670.88;;;7.73;100.00
5814;BME280;2933;52.302;8.134;2023-02-21T01:46:18;100678.38;;;7.80;100.00
5814;BME280;2933;52.302;8.134;2023-02-21T01:51:40;100675.63;;;7.83;100.00
5814;BME280;2933;52.302;8.134;2023-02-21T01:57:03;100678.16;;;7.84;100.00
5814;BME280;2933;52.302;8.134;2023-02-21T02:02:27;100671.34;;;7.82;100.00
5814;BME280;2933;52.302;8.134;2023-02-21T02:07:48;100668.81;;;7.80;100.00
5814;BME280;2933;52.302;8.134;2023-02-21T02:13:28;100661.38;;;7.72;100.00
5814;BME280;2933;52.302;8.134;2023-02-21T02:18:44;100669.09;;;7.74;100.00
5814;BME280;2933;52.302;8.134;2023-02-21T02:30:09;100651.44;;;7.81;100.00
5814;BME280;2933;52.302;8.134;2023-02-21T02:35:19;100647.19;;;7.80;100.00
5814;BME280;2933;52.302;8.134;2023-02-21T02:40:28;100661.72;;;7.84;100.00
5814;BME280;2933;52.302;8.134;2023-02-21T02:45:36;100645.91;;;7.69;100.00
5814;BME280;2933;52.302;8.134;2023-02-21T02:50:45;100678.16;;;7.84;100.00
5814;BME280;2933;52.302;8.134;2023-02-21T02:55:51;100676.25;;;7.88;100.00
5814;BME280;2933;52.302;8.134;2023-02-21T03:01:05;100667.81;;;7.83;100.00
5814;BME280;2933;52.302;8.134;2023-02-21T03:06:18;100673.59;;;7.89;100.00
5814;BME280;2933;52.302;8.134;2023-02-21T03:11:25;100678.81;;;7.89;100.00
5814;BME280;2933;52.302;8.134;2023-02-21T03:16:28;100680.72;;;7.86;100.00
5814;BME280;2933;52.302;8.134;2023-02-21T03:21:37;100686.53;;;7.91;100.00
5814;BME280;2933;52.302;8.134;2023-02-21T03:26:42;100697.16;;;7.86;100.00
5814;BME280;2933;52.302;8.134;2023-02-21T03:31:47;100700.53;;;7.88;100.00
5814;BME280;2933;52.302;8.134;2023-02-21T03:36:52;100701.22;;;7.92;100.00
5814;BME280;2933;52.302;8.134;2023-02-21T03:41:53;100696.03;;;7.92;100.00
5814;BME280;2933;52.302;8.134;2023-02-21T03:46:55;100693.63;;;7.87;100.00
5814;BME280;2933;52.302;8.134;2023-02-21T03:51:58;100695.31;;;7.88;100.00
5814;BME280;2933;52.302;8.134;2023-02-21T03:56:59;100703.06;;;7.90;100.00
5814;BME280;2933;52.302;8.134;2023-02-21T04:02:01;100707.44;;;7.89;100.00
5814;BME280;2933;52.302;8.134;2023-02-21T04:07:04;100719.78;;;7.84;100.00
5814;BME280;2933;52.302;8.134;2023-02-21T04:12:06;100682.38;;;7.68;100.00
5814;BME280;2933;52.302;8.134;2023-02-21T04:17:08;100711.91;;;7.86;100.00
5814;BME280;2933;52.302;8.134;2023-02-21T04:22:10;100708.38;;;7.87;100.00
5814;BME280;2933;52.302;8.134;2023-02-21T04:27:12;100701.63;;;7.83;100.00
5814;BME280;2933;52.302;8.134;2023-02-21T04:32:14;100717.25;;;7.83;100.00
5814;BME280;2933;52.302;8.134;2023-02-21T04:37:17;100718.31;;;7.79;100.00
5814;BME280;2933;52.302;8.134;2023-02-21T04:42:18;100710.16;;;7.86;100.00
5814;BME280;2933;52.302;8.134;2023-02-21T04:47:20;100689.06;;;7.73;100.00
5814;BME280;2933;52.302;8.134;2023-02-21T04:52:23;100701.72;;;7.81;100.00
5814;BME280;2933;52.302;8.134;2023-02-21T04:57:24;100679.66;;;7.71;100.00
5814;BME280;2933;52.302;8.134;2023-02-21T05:02:27;100683.59;;;7.80;100.00
5814;BME280;2933;52.302;8.134;2023-02-21T05:07:30;100690.31;;;7.84;100.00
5814;BME280;2933;52.302;8.134;2023-02-21T05:12:32;100689.34;;;7.86;100.00
5814;BME280;2933;52.302;8.134;2023-02-21T05:17:34;100680.06;;;7.81;100.00
5814;BME280;2933;52.302;8.134;2023-02-21T05:22:39;100685.03;;;7.85;100.00
5814;BME280;2933;52.302;8.134;2023-02-21T05:27:41;100687.72;;;7.84;100.00
5814;BME280;2933;52.302;8.134;2023-02-21T05:32:42;100690.41;;;7.82;100.00
5814;BME280;2933;52.302;8.134;2023-02-21T05:37:45;100686.94;;;7.82;100.00
5814;BME280;2933;52.302;8.134;2023-02-21T05:42:46;100686.19;;;7.80;100.00
5814;BME280;2933;52.302;8.134;2023-02-21T05:47:48;100690.69;;;7.76;100.00
5814;BME280;2933;52.302;8.134;2023-02-21T05:52:51;100680.56;;;7.70;100.00
5814;BME280;2933;52.302;8.134;2023-02-21T05:57:53;100675.41;;;7.68;100.00
5814;BME280;2933;52.302;8.134;2023-02-21T06:02:55;100678.59;;;7.75;100.00
5814;BME280;2933;52.302;8.134;2023-02-21T06:07:58;100681.13;;;7.76;100.00
5814;BME280;2933;52.302;8.134;2023-02-21T06:13:00;100679.50;;;7.74;100.00
5814;BME280;2933;52.302;8.134;2023-02-21T06:18:01;100683.16;;;7.70;100.00
5814;BME280;2933;52.302;8.134;2023-02-21T06:23:04;100683.88;;;7.73;100.00
5814;BME280;2933;52.302;8.134;2023-02-21T06:28:06;100679.00;;;7.66;100.00
5814;BME280;2933;52.302;8.134;2023-02-21T06:33:08;100689.34;;;7.67;100.00
5814;BME280;2933;52.302;8.134;2023-02-21T06:38:13;100688.84;;;7.59;100.00
5814;BME280;2933;52.302;8.134;2023-02-21T06:43:15;100694.47;;;7.50;100.00
5814;BME280;2933;52.302;8.134;2023-02-21T06:48:17;100692.50;;;7.55;100.00
5814;BME280;2933;52.302;8.134;2023-02-21T06:53:20;100688.06;;;7.57;100.00
5814;BME280;2933;52.302;8.134;2023-02-21T06:58:21;100689.84;;;7.56;100.00
5814;BME280;2933;52.302;8.134;2023-02-21T07:03:23;100696.00;;;7.54;100.00
5814;BME280;2933;52.302;8.134;2023-02-21T07:08:25;100685.63;;;7.54;100.00
5814;BME280;2933;52.302;8.134;2023-02-21T07:13:27;100696.53;;;7.62;100.00
5814;BME280;2933;52.302;8.134;2023-02-21T07:18:28;100701.72;;;7.62;100.00
5814;BME280;2933;52.302;8.134;2023-02-21T07:23:31;100703.53;;;7.60;100.00
5814;BME280;2933;52.302;8.134;2023-02-21T07:28:33;100719.25;;;7.57;100.00
5814;BME280;2933;52.302;8.134;2023-02-21T07:33:34;100719.97;;;7.60;100.00
5814;BME280;2933;52.302;8.134;2023-02-21T07:38:37;100723.28;;;7.64;100.00
5814;BME280;2933;52.302;8.134;2023-02-21T07:43:39;100728.00;;;7.56;100.00
5814;BME280;2933;52.302;8.134;2023-02-21T07:48:40;100731.28;;;7.59;100.00
5814;BME280;2933;52.302;8.134;2023-02-21T07:53:43;100742.72;;;7.55;100.00
5814;BME280;2933;52.302;8.134;2023-02-21T07:58:45;100739.06;;;7.59;100.00
5814;BME280;2933;52.302;8.134;2023-02-21T08:03:46;100742.53;;;7.60;100.00
5814;BME280;2933;52.302;8.134;2023-02-21T08:08:49;100736.47;;;7.59;100.00
5814;BME280;2933;52.302;8.134;2023-02-21T08:13:51;100743.53;;;7.57;100.00
5814;BME280;2933;52.302;8.134;2023-02-21T08:18:52;100745.94;;;7.62;100.00
5814;BME280;2933;52.302;8.134;2023-02-21T08:23:55;100744.22;;;7.61;100.00
5814;BME280;2933;52.302;8.134;2023-02-21T08:28:56;100746.75;;;7.63;100.00
5814;BME280;2933;52.302;8.134;2023-02-21T08:33:58;100756.69;;;7.73;100.00
5814;BME280;2933;52.302;8.134;2023-02-21T08:39:01;100749.72;;;7.74;100.00
5814;BME280;2933;52.302;8.134;2023-02-21T08:44:04;100758.34;;;7.74;100.00
5814;BME280;2933;52.302;8.134;2023-02-21T08:49:05;100762.53;;;7.79;100.00
5814;BME280;2933;52.302;8.134;2023-02-21T08:54:08;100766.81;;;7.80;100.00
5814;BME280;2933;52.302;8.134;2023-02-21T08:59:10;100760.94;;;7.74;100.00
5814;BME280;2933;52.302;8.134;2023-02-21T09:04:12;100764.22;;;7.80;100.00
5814;BME280;2933;52.302;8.134;2023-02-21T09:09:14;100767.91;;;7.74;100.00
5814;BME280;2933;52.302;8.134;2023-02-21T09:14:16;100761.47;;;7.83;100.00
5814;BME280;2933;52.302;8.134;2023-02-21T09:19:17;100764.22;;;7.80;100.00
5814;BME280;2933;52.302;8.134;2023-02-21T09:24:23;100756.19;;;7.84;100.00
5814;BME280;2933;52.302;8.134;2023-02-21T09:29:25;100758.66;;;7.87;100.00
5814;BME280;2933;52.302;8.134;2023-02-21T09:34:27;100757.69;;;7.90;100.00
5814;BME280;2933;52.302;8.134;2023-02-21T09:39:30;100749.88;;;7.90;100.00
5814;BME280;2933;52.302;8.134;2023-02-21T09:44:33;100766.38;;;7.89;100.00
5814;BME280;2933;52.302;8.134;2023-02-21T09:49:37;100768.28;;;7.85;100.00
5814;BME280;2933;52.302;8.134;2023-02-21T09:54:44;100773.47;;;7.85;100.00
5814;BME280;2933;52.302;8.134;2023-02-21T09:59:47;100775.25;;;7.85;100.00
5814;BME280;2933;52.302;8.134;2023-02-21T10:04:58;100762.31;;;7.83;100.00
5814;BME280;2933;52.302;8.134;2023-02-21T10:10:09;100776.72;;;7.90;100.00
5814;BME280;2933;52.302;8.134;2023-02-21T10:15:22;100771.59;;;7.89;100.00
5814;BME280;2933;52.302;8.134;2023-02-21T10:20:34;100773.91;;;7.95;100.00
5814;BME280;2933;52.302;8.134;2023-02-21T10:25:41;100778.00;;;8.01;100.00
5814;BME280;2933;52.302;8.134;2023-02-21T10:30:46;100785.47;;;8.08;100.00
5814;BME280;2933;52.302;8.134;2023-02-21T10:35:49;100783.75;;;8.07;100.00
5814;BME280;2933;52.302;8.134;2023-02-21T10:40:57;100781.09;;;8.09;100.00
5814;BME280;2933;52.302;8.134;2023-02-21T10:46:04;100784.69;;;8.06;100.00
5814;BME280;2933;52.302;8.134;2023-02-21T10:51:11;100776.66;;;8.11;100.00
5814;BME280;2933;52.302;8.134;2023-02-21T10:56:23;100777.78;;;8.24;100.00
5814;BME280;2933;52.302;8.134;2023-02-21T11:01:33;100776.59;;;8.32;100.00
5814;BME280;2933;52.302;8.134;2023-02-21T11:06:37;100783.53;;;8.31;100.00
5814;BME280;2933;52.302;8.134;2023-02-21T11:11:41;100787.50;;;8.21;100.00
5814;BME280;2933;52.302;8.134;2023-02-21T11:16:42;100778.34;;;8.12;100.00
5814;BME280;2933;52.302;8.134;2023-02-21T11:21:53;100777.84;;;8.23;100.00
5814;BME280;2933;52.302;8.134;2023-02-21T11:26:57;100782.28;;;8.21;100.00
5814;BME280;2933;52.302;8.134;2023-02-21T11:32:09;100776.22;;;8.20;100.00
5814;BME280;2933;52.302;8.134;2023-02-21T11:37:11;100771.72;;;8.24;100.00
5814;BME280;2933;52.302;8.134;2023-02-21T11:42:25;100776.13;;;8.04;100.00
5814;BME280;2933;52.302;8.134;2023-02-21T11:47:32;100776.78;;;8.08;100.00
5814;BME280;2933;52.302;8.134;2023-02-21T11:52:43;100764.00;;;8.03;100.00
5814;BME280;2933;52.302;8.134;2023-02-21T11:57:56;100761.63;;;7.99;100.00
5814;BME280;2933;52.302;8.134;2023-02-21T12:03:27;100747.19;;;7.91;100.00
5814;BME280;2933;52.302;8.134;2023-02-21T12:08:39;100753.31;;;7.90;100.00
5814;BME280;2933;52.302;8.134;2023-02-21T12:14:06;100751.91;;;8.02;100.00
5814;BME280;2933;52.302;8.134;2023-02-21T12:19:30;100748.53;;;8.00;100.00
5814;BME280;2933;52.302;8.134;2023-02-21T12:24:47;100738.97;;;8.01;100.00
5814;BME280;2933;52.302;8.134;2023-02-21T12:30:05;100736.66;;;7.95;100.00
5814;BME280;2933;52.302;8.134;2023-02-21T12:40:53;100736.16;;;8.05;100.00
5814;BME280;2933;52.302;8.134;2023-02-21T12:46:06;100733.63;;;8.04;100.00
5814;BME280;2933;52.302;8.134;2023-02-21T12:51:14;100735.16;;;8.08;100.00
5814;BME280;2933;52.302;8.134;2023-02-21T12:56:21;100729.19;;;8.06;100.00
5814;BME280;2933;52.302;8.134;2023-02-21T13:01:30;100732.34;;;8.13;100.00
5814;BME280;2933;52.302;8.134;2023-02-21T13:06:35;100727.22;;;8.11;100.00
5814;BME280;2933;52.302;8.134;2023-02-21T13:11:41;100716.94;;;8.08;100.00
5814;BME280;2933;52.302;8.134;2023-02-21T13:16:45;100714.91;;;8.15;100.00
5814;BME280;2933;52.302;8.134;2023-02-21T13:27:56;100715.38;;;8.23;100.00
5814;BME280;2933;52.302;8.134;2023-02-21T13:33:03;100705.75;;;8.25;100.00
5814;BME280;2933;52.302;8.134;2023-02-21T13:38:06;100704.84;;;8.26;100.00
5814;BME280;2933;52.302;8.134;2023-02-21T13:43:17;100702.38;;;8.23;100.00
5814;BME280;2933;52.302;8.134;2023-02-21T13:48:26;100702.44;;;8.21;100.00
5814;BME280;2933;52.302;8.134;2023-02-21T13:53:31;100698.41;;;8.16;100.00
5814;BME280;2933;52.302;8.134;2023-02-21T13:58:35;100697.78;;;8.11;100.00
5814;BME280;2933;52.302;8.134;2023-02-21T14:03:38;100688.69;;;8.00;100.00
5814;BME280;2933;52.302;8.134;2023-02-21T14:08:41;100683.19;;;8.06;100.00
5814;BME280;2933;52.302;8.134;2023-02-21T14:13:48;100688.47;;;8.05;100.00
5814;BME280;2933;52.302;8.134;2023-02-21T14:18:55;100684.91;;;8.07;100.00
5814;BME280;2933;52.302;8.134;2023-02-21T14:23:59;100691.44;;;7.97;100.00
5814;BME280;2933;52.302;8.134;2023-02-21T14:29:12;100676.13;;;7.91;100.00
5814;BME280;2933;52.302;8.134;2023-02-21T14:34:20;100678.94;;;7.86;100.00
5814;BME280;2933;52.302;8.134;2023-02-21T14:39:23;100682.25;;;7.90;100.00
5814;BME280;2933;52.302;8.134;2023-02-21T14:44:36;100686.63;;;7.89;100.00
5814;BME280;2933;52.302;8.134;2023-02-21T14:50:21;100685.75;;;7.89;100.00
5814;BME280;2933;52.302;8.134;2023-02-21T14:55:33;100682.09;;;7.74;100.00
5814;BME280;2933;52.302;8.134;2023-02-21T15:00:44;100682.19;;;7.72;100.00
5814;BME280;2933;52.302;8.134;2023-02-21T15:05:59;100693.41;;;7.73;100.00
5814;BME280;2933;52.302;8.134;2023-02-21T15:11:16;100680.69;;;7.67;100.00
5814;BME280;2933;52.302;8.134;2023-02-21T15:16:19;100690.09;;;7.69;100.00
5814;BME280;2933;52.302;8.134;2023-02-21T15:21:22;100686.69;;;7.69;100.00
5814;BME280;2933;52.302;8.134;2023-02-21T15:26:26;100677.63;;;7.58;100.00
5814;BME280;2933;52.302;8.134;2023-02-21T15:31:31;100687.75;;;7.65;100.00
5814;BME280;2933;52.302;8.134;2023-02-21T15:36:35;100684.06;;;7.69;100.00
5814;BME280;2933;52.302;8.134;2023-02-21T15:41:39;100687.47;;;7.71;100.00
5814;BME280;2933;52.302;8.134;2023-02-21T15:46:46;100693.84;;;7.64;100.00
5814;BME280;2933;52.302;8.134;2023-02-21T15:51:50;100698.19;;;7.63;100.00
5814;BME280;2933;52.302;8.134;2023-02-21T15:57:04;100704.31;;;7.62;100.00
5814;BME280;2933;52.302;8.134;2023-02-21T16:02:13;100696.53;;;7.62;100.00
5814;BME280;2933;52.302;8.134;2023-02-21T16:07:31;100688.13;;;7.55;100.00
5814;BME280;2933;52.302;8.134;2023-02-21T16:12:35;100697.63;;;7.56;100.00
5814;BME280;2933;52.302;8.134;2023-02-21T16:17:39;100694.69;;;7.64;100.00
5814;BME280;2933;52.302;8.134;2023-02-21T16:22:45;100692.16;;;7.63;100.00
5814;BME280;2933;52.302;8.134;2023-02-21T16:27:49;100687.63;;;7.47;100.00
5814;BME280;2933;52.302;8.134;2023-02-21T16:32:53;100692.81;;;7.47;100.00
5814;BME280;2933;52.302;8.134;2023-02-21T16:38:00;100694.19;;;7.56;100.00
5814;BME280;2933;52.302;8.134;2023-02-21T16:43:03;100684.28;;;7.45;100.00
5814;BME280;2933;52.302;8.134;2023-02-21T16:48:05;100687.94;;;7.60;100.00
5814;BME280;2933;52.302;8.134;2023-02-21T16:53:11;100685.75;;;7.51;100.00
5814;BME280;2933;52.302;8.134;2023-02-21T16:58:19;100691.59;;;7.56;100.00
5814;BME280;2933;52.302;8.134;2023-02-21T17:03:23;100696.81;;;7.56;100.00
5814;BME280;2933;52.302;8.134;2023-02-21T17:08:26;100691.91;;;7.48;100.00
5814;BME280;2933;52.302;8.134;2023-02-21T17:13:28;100700.16;;;7.58;100.00
5814;BME280;2933;52.302;8.134;2023-02-21T17:18:29;100700.31;;;7.55;100.00
5814;BME280;2933;52.302;8.134;2023-02-21T17:23:32;100706.50;;;7.52;100.00
5814;BME280;2933;52.302;8.134;2023-02-21T17:28:34;100698.69;;;7.52;100.00
5814;BME280;2933;52.302;8.134;2023-02-21T17:33:39;100704.16;;;7.46;100.00
5814;BME280;2933;52.302;8.134;2023-02-21T17:38:42;100700.50;;;7.50;100.00
5814;BME280;2933;52.302;8.134;2023-02-21T17:43:44;100684.66;;;7.36;100.00
5814;BME280;2933;52.302;8.134;2023-02-21T17:48:46;100702.75;;;7.39;100.00
5814;BME280;2933;52.302;8.134;2023-02-21T17:53:49;100701.69;;;7.43;100.00
5814;BME280;2933;52.302;8.134;2023-02-21T17:58:51;100709.28;;;7.48;100.00
5814;BME280;2933;52.302;8.134;2023-02-21T18:03:54;100678.28;;;7.24;100.00
5814;BME280;2933;52.302;8.134;2023-02-21T18:08:57;100711.09;;;7.46;100.00
5814;BME280;2933;52.302;8.134;2023-02-21T18:14:02;100691.75;;;7.32;100.00
5814;BME280;2933;52.302;8.134;2023-02-21T18:19:04;100715.53;;;7.43;100.00
5814;BME280;2933;52.302;8.134;2023-02-21T18:24:07;100722.34;;;7.46;100.00
5814;BME280;2933;52.302;8.134;2023-02-21T18:29:09;100715.66;;;7.40;100.00
5814;BME280;2933;52.302;8.134;2023-02-21T18:34:14;100686.63;;;7.31;100.00
5814;BME280;2933;52.302;8.134;2023-02-21T18:39:18;100712.22;;;7.40;100.00
5814;BME280;2933;52.302;8.134;2023-02-21T18:44:20;100691.97;;;7.27;100.00
5814;BME280;2933;52.302;8.134;2023-02-21T18:49:22;100706.50;;;7.32;100.00
5814;BME280;2933;52.302;8.134;2023-02-21T18:54:25;100714.22;;;7.33;100.00
5814;BME280;2933;52.302;8.134;2023-02-21T18:59:27;100708.84;;;7.38;100.00
5814;BME280;2933;52.302;8.134;2023-02-21T19:04:28;100700.41;;;7.33;100.00
5814;BME280;2933;52.302;8.134;2023-02-21T19:09:31;100662.78;;;7.02;100.00
5814;BME280;2933;52.302;8.134;2023-02-21T19:14:36;100699.97;;;7.23;100.00
5814;BME280;2933;52.302;8.134;2023-02-21T19:19:38;100703.47;;;7.22;100.00
5814;BME280;2933;52.302;8.134;2023-02-21T19:24:40;100684.13;;;7.08;100.00
5814;BME280;2933;52.302;8.134;2023-02-21T19:29:42;100701.78;;;7.21;100.00
5814;BME280;2933;52.302;8.134;2023-02-21T19:34:45;100700.75;;;7.25;100.00
5814;BME280;2933;52.302;8.134;2023-02-21T19:39:48;100698.16;;;7.25;100.00
5814;BME280;2933;52.302;8.134;2023-02-21T19:44:50;100683.84;;;7.15;100.00
5814;BME280;2933;52.302;8.134;2023-02-21T19:49:51;100689.00;;;7.16;100.00
5814;BME280;2933;52.302;8.134;2023-02-21T19:54:54;100691.72;;;7.13;100.00
5814;BME280;2933;52.302;8.134;2023-02-21T19:59:56;100694.59;;;7.07;100.00
5814;BME280;2933;52.302;8.134;2023-02-21T20:04:57;100681.59;;;7.07;100.00
5814;BME280;2933;52.302;8.134;2023-02-21T20:10:00;100680.63;;;7.09;100.00
5814;BME280;2933;52.302;8.134;2023-02-21T20:15:02;100648.28;;;6.96;100.00
5814;BME280;2933;52.302;8.134;2023-02-21T20:20:05;100636.41;;;6.90;100.00
5814;BME280;2933;52.302;8.134;2023-02-21T20:25:12;100682.50;;;7.06;100.00
5814;BME280;2933;52.302;8.134;2023-02-21T20:30:15;100678.44;;;7.00;100.00
5814;BME280;2933;52.302;8.134;2023-02-21T20:35:17;100637.22;;;6.72;100.00
5814;BME280;2933;52.302;8.134;2023-02-21T20:40:20;100639.84;;;6.91;100.00
5814;BME280;2933;52.302;8.134;2023-02-21T20:45:22;100639.78;;;6.92;100.00
5814;BME280;2933;52.302;8.134;2023-02-21T20:50:23;100666.16;;;7.04;100.00
5814;BME280;2933;52.302;8.134;2023-02-21T20:55:27;100657.66;;;7.00;100.00
5814;BME280;2933;52.302;8.134;2023-02-21T21:00:28;100651.81;;;6.95;100.00
5814;BME280;2933;52.302;8.134;2023-02-21T21:05:30;100627.28;;;6.82;100.00
5814;BME280;2933;52.302;8.134;2023-02-21T21:10:34;100657.00;;;6.95;100.00
5814;BME280;2933;52.302;8.134;2023-02-21T21:15:36;100610.53;;;6.68;100.00
5814;BME280;2933;52.302;8.134;2023-02-21T21:20:38;100632.28;;;6.86;100.00
5814;BME280;2933;52.302;8.134;2023-02-21T21:25:42;100631.34;;;6.87;100.00
5814;BME280;2933;52.302;8.134;2023-02-21T21:30:43;100628.69;;;6.89;100.00
5814;BME280;2933;52.302;8.134;2023-02-21T21:35:48;100637.50;;;6.85;100.00
5814;BME280;2933;52.302;8.134;2023-02-21T21:40:59;100608.47;;;6.76;100.00
5814;BME280;2933;52.302;8.134;2023-02-21T21:46:07;100641.28;;;6.98;100.00
5814;BME280;2933;52.302;8.134;2023-02-21T21:51:08;100643.09;;;6.96;100.00
5814;BME280;2933;52.302;8.134;2023-02-21T21:56:11;100647.56;;;6.92;100.00
5814;BME280;2933;52.302;8.134;2023-02-21T22:01:16;100624.59;;;6.83;100.00
5814;BME280;2933;52.302;8.134;2023-02-21T22:06:18;100625.88;;;6.93;100.00
5814;BME280;2933;52.302;8.134;2023-02-21T22:11:20;100629.47;;;6.91;100.00
5814;BME280;2933;52.302;8.134;2023-02-21T22:16:22;100616.75;;;6.85;100.00
5814;BME280;2933;52.302;8.134;2023-02-21T22:21:24;100613.25;;;6.86;100.00
5814;BME280;2933;52.302;8.134;2023-02-21T22:26:30;100614.09;;;6.86;100.00
5814;BME280;2933;52.302;8.134;2023-02-21T22:31:31;100613.25;;;6.86;100.00
5814;BME280;2933;52.302;8.134;2023-02-21T22:36:33;100605.53;;;6.84;100.00
5814;BME280;2933;52.302;8.134;2023-02-21T22:41:37;100601.22;;;6.83;100.00
5814;BME280;2933;52.302;8.134;2023-02-21T22:46:40;100598.53;;;6.86;100.00
5814;BME280;2933;52.302;8.134;2023-02-21T22:51:42;100597.03;;;6.81;100.00
5814;BME280;2933;52.302;8.134;2023-02-21T22:56:45;100588.19;;;6.85;100.00
5814;BME280;2933;52.302;8.134;2023-02-21T23:01:50;100585.47;;;6.88;100.00
5814;BME280;2933;52.302;8.134;2023-02-21T23:06:52;100567.34;;;6.86;100.00
5814;BME280;2933;52.302;8.134;2023-02-21T23:11:57;100551.38;;;6.75;100.00
5814;BME280;2933;52.302;8.134;2023-02-21T23:16:59;100564.81;;;6.85;100.00
5814;BME280;2933;52.302;8.134;2023-02-21T23:22:01;100531.66;;;6.71;100.00
5814;BME280;2933;52.302;8.134;2023-02-21T23:27:05;100543.53;;;6.76;100.00
5814;BME280;2933;52.302;8.134;2023-02-21T23:32:08;100540.72;;;6.81;100.00
5814;BME280;2933;52.302;8.134;2023-02-21T23:37:09;100537.41;;;6.77;100.00
5814;BME280;2933;52.302;8.134;2023-02-21T23:42:13;100540.81;;;6.79;100.00
5814;BME280;2933;52.302;8.134;2023-02-21T23:47:16;100530.84;;;6.70;100.00
5814;BME280;2933;52.302;8.134;2023-02-21T23:52:18;100529.63;;;6.77;100.00
5814;BME280;2933;52.302;8.134;2023-02-21T23:57:23;100535.41;;;6.84;100.00
